Portada
METAR-TAF:

METAR-TAF

Aeropuertos :

Aeropuerto de Melilla

Melilla, España

latitud: 35-17N, longitud: 002-57W, altitud: 47 m

Observación

El informe se hizo hace 38 minutos, a las 05:30 UTC
Viento 4 kt del oeste-suroeste, variando entre sur-suroeste y oeste-noroeste
Temperatura 13°C
Humedad 88%
Presión 1017 hPa
Visibilidad 10 km o más
Nubes dispersas a una altura de 1900 ft

METAR: GEML 150530Z 24004KT 200V300 9999 SCT019 13/11 Q1017

Hora: 07:08 (06:08 UTC)

Pronóstico

El informe se hizo hace 4 horas y 8 minutos, a las 02:00 UTC
Pronóstico válido del 15 a las 03 UTC al 16 a las 03 UTC
Viento 8 kt del oeste
Visibilidad 10 km o más
Escasas nubes a una altura de 2000 ft

TAF: GEML 150200Z 1503/1603 26008KT 9999 FEW020 TX18/1514Z TN13/1507Z

Observaciones y pronósticos meteorológicos de más de 4000 aeropuertos (mensajes METAR y TAF).

Los puntos amarillos y rojos representan las estaciones disponibles.

Ponga el ratón en el punto deseado para ver el nombre de la estación.

Haga clic para ver las observaciones y los pronósticos meteorológicos.

Para cambiar el mapa : haga clic en los botones verdes con una cruz de color negro para hacer un zoom, en el botón verde con un guión para alejar o en las flechas verdes para mapas adyacentes.


METAR-TAF: